Mount Plymouth, Florida
Current Conditions -  °F | °C
As of 6:53 PM on Saturday 22 Nov 2014 (Local Time) from KSFB Reporting Station
Overcast Overcast  
Wind Chill: 68°   Ceiling: 2800
Heat Index: 68°   Visibility: 10mi
Dew Point: 65°   Wind: 9mph
Humidity: 90%   Direction: 90°E
Pressure: 30.15"   Gusts: NA
Location:  28.8172°N, 81.4964°W
Report Text: KSFB 222353Z 09008KT 10SM BKN028 OVC044 20/18 A3015 RMK AO2 SLP209 60007 T02000183 10200 20194 56006
Loading
Personal Weather Stations






























Interactive Weather Map New forecast layout! Learn more

10-Day Weather Forecast

Advertisements
Track Severe Weather on mobile